GalaxyControl    Crypto Space Commander - Recent OpenSea Sales   v0.1
Ships and modules from Crypto Space Commanders sold for CryptoCurrency and thus real value.
Data is gathered every 6 hours from the OpenSea API. Since the main reason to gather the data is to track prices only non-bundled sales are processed.
Transaction Owner Asset Price
Time ID Old owner New owner Icon Asset Tech Currency Price Dollar value
10.06.2021 06:16 124273698 ceaa84ed ChuckdGaf Prospector MP T1 ETH 0,004 10,2
10.06.2021 05:55 124269208 ChuckdGaf edb7cf2a U.S.S. Rio Grande NCC-72452 T1 WETH 0,011 27,8
29.10.2020 03:38 56253488 ChuckdGaf JMoney Cruiser FF T1 ETH 0,987 385,9
22.10.2020 12:49 54792774 spaceballs3000 ChuckdGaf La Sirena T1 ETH 1,810 746,6
11.10.2020 23:50 52567496 ChuckdGaf BlackKettle Thermal Allgad Beam T4 ETH 0,006 2,2
13.09.2020 20:58 46308813 ChuckdGaf Virosa Harvester MP T1 ETH 0,320 115,8
12.07.2020 20:27 34079714 ChuckdGaf IPPUA Harvester MP T1 WETH 0,650 154,4
25.06.2020 20:45 31779109 ChuckdGaf 37f37f24 Kindled R2 Kinetic Shield T1 ETH 0,015 3,5
25.06.2020 20:39 31778602 ChuckdGaf 37f37f24 Kindled R2 Kinetic Shield T2 ETH 0,040 9,3
25.06.2020 20:39 31778594 ChuckdGaf 37f37f24 Kindled R2 Kinetic Shield T1 ETH 0,015 3,5
25.06.2020 20:38 31778575 ChuckdGaf 37f37f24 Kindled R2 Kinetic Shield T1 ETH 0,015 3,5
25.06.2020 20:38 31778561 ChuckdGaf 37f37f24 Kindled R2 Kinetic Shield T1 ETH 0,015 3,5
03.05.2020 18:39 21560790 x13v ChuckdGaf Thermal Allgad Beam T4 ETH 0,006 1,2
18.04.2020 19:49 18902750 Unity ChuckdGaf Quiver D22 Laser Booster T2 ETH 0,019 3,3
18.04.2020 19:46 18902666 x13v ChuckdGaf Quiver D22 Laser Booster T2 ETH 0,019 3,3
18.04.2020 19:45 18902602 Unity ChuckdGaf Quiver D22 Laser Booster T2 ETH 0,019 3,3
12.04.2020 09:09 18631843 PhaseWalk ChuckdGaf VS22 Titanium Mesh T1 ETH 0,010 1,6
09.04.2020 05:52 18494410 PhaseWalk ChuckdGaf Dolo Dji21 Mesh Booster T2 ETH 0,025 4,3
29.03.2020 20:08 18014795 alinghi12 ChuckdGaf Kindled R2 Kinetic Shield T1 ETH 0,010 1,3
28.03.2020 17:06 17960926 ChuckdGaf SkyNet Lazarus Prime Class 3 Core T1 ETH 0,030 3,9
25.03.2020 00:30 17790007 ChuckdGaf BlackKettle HCP MG Radar T2 ETH 0,020 2,8
25.03.2020 00:30 17790003 ChuckdGaf BlackKettle HCP MG Radar T2 ETH 0,020 2,8
25.03.2020 00:29 17789977 ChuckdGaf BlackKettle Reaper D1 Particle Beam T2 ETH 0,024 3,3
23.03.2020 19:45 17730402 x13v ChuckdGaf Ronin XR1 Refining Amplifier T1 WETH 0,045 6,0
23.03.2020 16:10 17723434 ChrisR ChuckdGaf Dolo Dji21 Mesh Booster T1 WETH 0,025 3,3
21.03.2020 16:09 17626313 PhaseWalk ChuckdGaf Kindled R2 Kinetic Shield T1 WETH 0,010 1,3
21.03.2020 16:09 17626312 PhaseWalk ChuckdGaf Kindled R2 Kinetic Shield T1 WETH 0,010 1,3
21.03.2020 16:09 17626311 PhaseWalk ChuckdGaf Kindled R2 Kinetic Shield T1 WETH 0,010 1,3
18.03.2020 14:06 17451589 ChuckdGaf seno Reaper D1 Particle Beam T2 ETH 0,029 3,3
14.03.2020 02:13 17217584 ChuckdGaf 4f672b00 Vanguard SE T1 ETH 0,020 2,7
11.03.2020 06:10 17007022 ChrisR ChuckdGaf Dolo Dji21 Mesh Booster T1 ETH 0,025 5,0
11.03.2020 06:06 17006912 JimHopper ChuckdGaf VS22 Titanium Mesh T1 ETH 0,008 1,5
10.03.2020 23:11 16990246 ChrisR ChuckdGaf Ronin XR1 Refining Amplifier T1 ETH 0,090 18,1
27.02.2020 22:37 16388353 ChuckdGaf BlackKettle Dregger MP T1 WETH 0,086 20,0
20.02.2020 10:43 15933380 ChuckdGaf ed9be6d9 Thermal Allgad Beam T1 ETH 0,010 2,5
04.02.2020 00:43 14964076 JimHopper ChuckdGaf Multiphasic Shields T1 ETH 0,100 19,0
31.01.2020 19:23 14794522 bc7de2b7 ChuckdGaf Quantum R2 Prefactory Particle Beam T3 WETH 0,170 30,7
31.01.2020 16:56 14786528 bc7de2b7 ChuckdGaf Reaper Class 3 Graviton Beam T2 WETH 0,150 27,1
21.01.2020 00:22 14155497 x13v ChuckdGaf Grand Summit Freighter T1 ETH 0,022 3,7
21.01.2020 00:21 14155399 Cryptonaut ChuckdGaf Kindled R3 Plasma Shield T1 ETH 0,035 5,8
18.01.2020 17:47 14040321 ChuckdGaf shallbe Nomad MP T1 ETH 0,290 50,9
15.01.2020 07:34 13865475 ChuckdGaf BlackKettle U.S.S. Voyager NCC-74656 T1 ETH 0,939 152,2
06.01.2020 12:32 13478572 BitcoinPr0 ChuckdGaf Grand Summit Freighter T1 WETH 0,035 4,9
06.01.2020 11:55 13477170 Pranked ChuckdGaf HLS 5 Grim T1 ETH 0,016 2,2
06.01.2020 11:55 13477165 Pranked ChuckdGaf HLS 5 Grim T1 ETH 0,016 2,2
06.01.2020 11:52 13477123 Pranked ChuckdGaf HLS 5 Grim T1 ETH 0,016 2,2
06.01.2020 11:51 13477063 Pranked ChuckdGaf Twin Warp Core T1 ETH 0,013 1,8
06.01.2020 11:51 13477066 Pranked ChuckdGaf Twin Warp Core T1 ETH 0,013 1,8
06.01.2020 11:49 13476969 Pranked ChuckdGaf Twin Warp Core T1 ETH 0,013 1,8
06.01.2020 11:46 13476840 Pranked ChuckdGaf Xeno 1 Pulse Scanner T1 ETH 0,017 2,4
06.01.2020 11:36 13476455 Pranked ChuckdGaf Xeno 1 Pulse Scanner T1 ETH 0,017 2,4
06.01.2020 11:34 13476372 Launchpad_McFrak ChuckdGaf Reaper Class 3 Graviton Beam T2 ETH 0,140 19,7
06.01.2020 11:32 13476282 Pranked ChuckdGaf Kindled R3 Plasma Shield T1 ETH 0,015 2,1
06.01.2020 11:30 13476226 Pranked ChuckdGaf Kindled R3 Plasma Shield T1 ETH 0,015 2,1
06.01.2020 11:30 13476229 Pranked ChuckdGaf Kindled R3 Plasma Shield T1 ETH 0,015 2,1
06.01.2020 11:30 13476214 Pranked ChuckdGaf Kindled R2 Kinetic Shield T1 ETH 0,017 2,4
06.01.2020 11:30 13476206 Pranked ChuckdGaf Kindled R2 Kinetic Shield T1 ETH 0,017 2,4
03.01.2020 23:18 13365182 ChuckdGaf spaceballs3000 Photonic Cannon T1 ETH 0,209 27,9
02.01.2020 06:40 13292061 ChuckdGaf 380b1528 Concentrated Neutron Beam T1 ETH 0,250 32,4
01.01.2020 20:59 13277606 Tron ChuckdGaf Quantum R2 Prefactory Particle Beam T2 WETH 0,085 11,2
30.12.2019 18:22 13215254 ChuckyPwn ChuckdGaf HLS 5 Grim T1 ETH 0,040 5,3
30.12.2019 18:22 13215248 ChuckyPwn ChuckdGaf Nomad MP T1 ETH 0,250 32,9
29.12.2019 19:00 13186794 ChuckdGaf BlackKettle Lazarus Prime Class 3 Core T1 ETH 0,039 5,3
29.12.2019 18:56 13186679 ChuckdGaf BlackKettle Lazarus Prime Class 5 Core T1 ETH 0,069 9,3
28.12.2019 22:17 13162545 kmpunker ChuckdGaf Grand Summit Freighter T1 WETH 0,035 4,5
28.12.2019 22:02 13162274 a015fe2a ChuckdGaf Kindled R2 Kinetic Shield T1 WETH 0,021 2,7
25.12.2019 14:33 13060478 FlyBoyTopher ChuckdGaf NV1 Guardian Cargo Freighter T1 WETH 0,060 7,5
25.12.2019 10:07 13054596 Maverick_and_Goose ChuckdGaf Grand Summit Freighter T1 WETH 0,060 7,5
25.12.2019 01:40 13047613 Heisenberg ChuckdGaf Grand Summit Freighter T1 WETH 0,060 7,6
24.12.2019 14:45 13034256 TaavetiBSG ChuckdGaf Precious Metal Extractor Beam T2 WETH 0,330 41,6
23.12.2019 23:31 13016469 Worf ChuckdGaf Oasis MP T1 ETH 0,350 44,8
19.12.2019 22:26 12888689 Pranked ChuckdGaf Kindled R2 Kinetic Shield T1 ETH 0,029 3,7
19.12.2019 22:06 12888150 Pranked ChuckdGaf Vulcan Ice Beam T1 ETH 0,055 7,0
19.12.2019 20:20 12886072 ChuckyPwn ChuckdGaf Vital CP3 Conversion Core T1 ETH 0,010 1,3
19.12.2019 14:03 12877409 Pranked ChuckdGaf Cosmic Organic C1 Beam T3 WETH 0,125 15,9
19.12.2019 13:45 12876944 Noteboom ChuckdGaf Gallimide Pulse Miner T2 WETH 0,155 19,7
19.12.2019 03:59 12865126 ChuckdGaf 3b8a1749 Horizon MP T1 ETH 1,690 217,5
17.12.2019 19:38 12794015 a015fe2a ChuckdGaf Reaper Class 3 Graviton Beam T2 WETH 0,160 19,7
16.12.2019 22:45 12759516 ChuckyPwn ChuckdGaf Quantum R2 Prefactory Particle Beam T2 ETH 0,080 10,2
16.12.2019 16:53 12743220 ChuckdGaf MolekMan Lazarus Prime Class 5 Core T1 WETH 0,055 7,0
16.12.2019 16:53 12743223 ChuckdGaf MolekMan Lazarus Prime Class 3 Core T1 WETH 0,038 4,9
16.12.2019 13:07 12737991 ChuckdGaf Unity U.S.S. Rio Grande NCC-72452 T1 ETH 0,025 3,2
16.12.2019 04:12 12726177 ChuckdGaf spaceballs3000 Regenerative Shields T1 ETH 0,045 5,7
16.12.2019 02:29 12723667 ChuckdGaf spaceballs3000 Regenerative Shields T1 ETH 0,045 5,7
16.12.2019 02:29 12723667 ChuckdGaf spaceballs3000 Regenerative Shields T1 ETH 0,045 5,7
16.12.2019 01:49 12722639 ChuckdGaf c0043dad Photonic Cannon T1 ETH 0,299 38,2
16.12.2019 01:05 12721605 ChuckdGaf c0043dad Regenerative Shields T1 ETH 0,045 5,7
15.12.2019 18:32 12711710 ChuckdGaf Optegrity Lazarus Prime Class 5 Core T1 ETH 0,063 8,0
14.12.2019 11:54 12660654 ChuckdGaf a015fe2a Photonic Cannon T1 ETH 0,300 38,3
14.12.2019 06:45 12651034 ChuckdGaf 6df17656 U.S.S. Rio Grande NCC-72452 T1 ETH 0,025 3,2
13.12.2019 20:54 12636099 ChuckdGaf Guch Quantum Z2 Mass Destroyer T1 WETH 0,016 2,0
13.12.2019 19:54 12634042 ChuckdGaf BlackKettle Reaper Class 3 Graviton Beam T1 ETH 0,134 17,1
Apache Webserver PHP MySQL Firefox Twitter @Galaxy_Control   |   Support me via:   Support via Ethereum Support via Patreon